Portada
METAR-TAF:

METAR-TAF

Aeropuertos :

Aeropuerto Internacional de Lamezia Terme

Lamezia Terme, Italia

latitud: 38-54N, longitud: 016-15E, altitud: 15 m

Observación

El informe se hizo hace 12 minutos, a las 16:20 UTC
Viento 5 kt del este-noreste, variando entre noreste y este
Temperatura 11°C
Humedad 82%
Presión 1008 hPa
Visibilidad 10 km o más

METAR: LICA 041620Z AUTO 07005KT 040V100 9999 NCD 11/08 Q1008

Hora: 17:32 (16:32 UTC)

Pronóstico

El informe se hizo hace 5 horas y 32 minutos, a las 11:00 UTC
Pronóstico válido del 04 a las 12 UTC al 05 a las 12 UTC
Viento 8 kt del oeste
Visibilidad 10 km o más
Nubes dispersas a una altura de 2000 ft
Evolucionando progresivamente
del 04 a las 18 UTC al 04 a las 20 UTC
Viento 16 kt del este

TAF: LICA 041100Z 0412/0512 28008KT 9999 SCT020 BECMG 0418/0420 08016KT

Observaciones y pronósticos meteorológicos de más de 4000 aeropuertos (mensajes METAR y TAF).

Los puntos amarillos y rojos representan las estaciones disponibles.

Ponga el ratón en el punto deseado para ver el nombre de la estación.

Haga clic para ver las observaciones y los pronósticos meteorológicos.

Para cambiar el mapa : haga clic en los botones verdes con una cruz de color negro para hacer un zoom, en el botón verde con un guión para alejar o en las flechas verdes para mapas adyacentes.


METAR-TAF: